createdAt,value
2023-03-22T00:00:35.582Z,100100.41
2023-03-22T00:03:01.944Z,100101.06
2023-03-22T00:05:30.524Z,100098.28
2023-03-22T00:07:58.116Z,100096.19
2023-03-22T00:10:25.644Z,100095.38
2023-03-22T00:12:52.013Z,100094.31
2023-03-22T00:15:18.338Z,100087.81
2023-03-22T00:17:45.263Z,100098.06
2023-03-22T00:20:11.613Z,100095.28
2023-03-22T00:22:37.937Z,100086.34
2023-03-22T00:25:04.230Z,100090.63
2023-03-22T00:27:30.661Z,100095.72
2023-03-22T00:29:56.963Z,100090.25
2023-03-22T00:32:23.288Z,100094.47
2023-03-22T00:34:49.586Z,100080.25
2023-03-22T00:37:16.580Z,100082.56
2023-03-22T00:39:42.997Z,100081.63
2023-03-22T00:42:09.308Z,100076.62
2023-03-22T00:44:35.910Z,100067.22
2023-03-22T00:47:02.331Z,100052.84
2023-03-22T00:49:29.293Z,100060.19
2023-03-22T00:51:55.647Z,100058.22
2023-03-22T00:54:21.954Z,100043.97
2023-03-22T00:56:50.005Z,100044.72
2023-03-22T00:59:16.844Z,100044.50
2023-03-22T01:01:43.192Z,100041.75
2023-03-22T01:04:09.529Z,100046.87
2023-03-22T01:06:35.971Z,100043.63
2023-03-22T01:09:02.284Z,100047.50
2023-03-22T01:11:28.599Z,100041.13
2023-03-22T01:13:55.836Z,100049.03
2023-03-22T01:16:22.180Z,100038.81
2023-03-22T01:18:48.522Z,100051.69
2023-03-22T01:21:14.940Z,100053.87
2023-03-22T01:23:41.288Z,100049.00
2023-03-22T01:26:07.612Z,100048.66
2023-03-22T01:28:33.914Z,100044.81
2023-03-22T01:31:00.309Z,100045.97
2023-03-22T01:33:26.684Z,100031.78
2023-03-22T01:35:53.184Z,100030.97
2023-03-22T01:38:19.533Z,100029.09
2023-03-22T01:40:45.829Z,100020.06
2023-03-22T01:43:12.163Z,100019.00
2023-03-22T01:45:38.552Z,100021.34
2023-03-22T01:48:04.904Z,100027.94
2023-03-22T01:50:31.620Z,100024.81
2023-03-22T01:52:57.944Z,100020.88
2023-03-22T01:55:24.309Z,100031.44
2023-03-22T01:57:50.629Z,100020.00
2023-03-22T02:00:19.051Z,100010.81
2023-03-22T02:02:45.703Z,100004.62
2023-03-22T02:05:12.981Z,100019.75
2023-03-22T02:07:39.345Z,100009.13
2023-03-22T02:10:05.665Z,100010.66
2023-03-22T02:12:31.999Z,100009.13
2023-03-22T02:14:58.319Z,100017.72
2023-03-22T02:17:24.711Z,100013.63
2023-03-22T02:19:52.024Z,100007.25
2023-03-22T02:22:21.894Z,100014.50
2023-03-22T02:24:48.270Z,100013.69
2023-03-22T02:27:16.117Z,100020.19
2023-03-22T02:29:45.130Z,100016.47
2023-03-22T02:32:11.490Z,100010.16
2023-03-22T02:34:37.821Z,100020.47
2023-03-22T02:37:04.133Z,100016.00
2023-03-22T02:39:30.562Z,100022.84
2023-03-22T02:41:56.954Z,100018.41
2023-03-22T02:44:23.389Z,100016.53
2023-03-22T02:46:49.777Z,100009.03
2023-03-22T02:49:16.138Z,100015.81
2023-03-22T02:51:42.489Z,100013.41
2023-03-22T02:54:08.806Z,100013.56
2023-03-22T02:56:36.146Z,100009.00
2023-03-22T02:59:02.536Z,100003.66
2023-03-22T03:01:29.417Z,100012.50
2023-03-22T03:03:56.586Z,100005.25
2023-03-22T03:06:22.901Z,100007.44
2023-03-22T03:08:50.993Z,100004.59
2023-03-22T03:11:17.324Z,100007.66
2023-03-22T03:13:43.682Z,100013.25
2023-03-22T03:16:10.092Z,100008.91
2023-03-22T03:18:36.449Z,100012.38
2023-03-22T03:21:02.827Z,100011.06
2023-03-22T03:23:29.199Z,100011.28
2023-03-22T03:25:58.021Z,100008.34
2023-03-22T03:28:30.071Z,100013.28
2023-03-22T03:30:56.407Z,100010.03
2023-03-22T03:33:22.713Z,100020.53
2023-03-22T03:35:49.032Z,100014.47
2023-03-22T03:38:15.478Z,100015.44
2023-03-22T03:40:41.962Z,100008.91
2023-03-22T03:43:08.316Z,100006.84
2023-03-22T03:45:34.644Z,100007.34
2023-03-22T03:48:01.077Z,100006.06
2023-03-22T03:50:27.403Z,100001.16
2023-03-22T03:52:53.783Z,99996.59
2023-03-22T03:55:20.098Z,99998.56
2023-03-22T03:57:46.402Z,100002.97
2023-03-22T04:00:14.679Z,100006.22
2023-03-22T04:02:41.296Z,100000.16
2023-03-22T04:05:08.262Z,100001.78
2023-03-22T04:07:34.588Z,100005.84
2023-03-22T04:10:00.929Z,100004.88
2023-03-22T04:12:27.283Z,100000.03
2023-03-22T04:14:55.970Z,100006.72
2023-03-22T04:17:22.296Z,100007.28
2023-03-22T04:19:49.490Z,100006.13
2023-03-22T04:22:18.600Z,100006.72
2023-03-22T04:24:50.308Z,100005.72
2023-03-22T04:27:16.663Z,100003.37
2023-03-22T04:29:48.713Z,99997.06
2023-03-22T04:32:15.044Z,100000.84
2023-03-22T04:34:41.363Z,99996.78
2023-03-22T04:37:08.152Z,100003.66
2023-03-22T04:39:34.458Z,100002.31
2023-03-22T04:42:01.081Z,100001.50
2023-03-22T04:44:27.391Z,99998.41
2023-03-22T04:46:53.737Z,100004.97
2023-03-22T04:49:20.066Z,99999.09
2023-03-22T04:51:46.412Z,99993.66
2023-03-22T04:54:12.895Z,99997.59
2023-03-22T04:56:39.223Z,100002.75
2023-03-22T04:59:05.581Z,99998.63
2023-03-22T05:01:31.966Z,100005.84
2023-03-22T05:03:58.270Z,100007.44
2023-03-22T05:06:24.585Z,99995.00
2023-03-22T05:08:51.014Z,99993.19
2023-03-22T05:11:17.513Z,99995.84
2023-03-22T05:13:43.900Z,100009.09
2023-03-22T05:16:10.313Z,100012.75
2023-03-22T05:18:38.110Z,100004.06
2023-03-22T05:21:06.870Z,99990.59
2023-03-22T05:23:33.221Z,100001.72
2023-03-22T05:26:01.770Z,99991.41
2023-03-22T05:28:28.759Z,99997.78
2023-03-22T05:30:57.135Z,99994.34
2023-03-22T05:33:23.621Z,99998.63
2023-03-22T05:35:50.727Z,99995.97
2023-03-22T05:38:17.161Z,100000.69
2023-03-22T05:40:43.513Z,100001.97
2023-03-22T05:43:09.866Z,100003.56
2023-03-22T05:45:36.921Z,99999.19
2023-03-22T05:48:03.261Z,100003.88
2023-03-22T05:50:29.604Z,100007.69
2023-03-22T05:52:56.269Z,100008.41
2023-03-22T05:55:23.321Z,100000.25
2023-03-22T05:57:51.590Z,99996.94
2023-03-22T06:00:18.271Z,99998.75
2023-03-22T06:02:44.734Z,100002.34
2023-03-22T06:05:11.409Z,99999.97
2023-03-22T06:07:37.751Z,99990.88
2023-03-22T06:10:04.228Z,99998.97
2023-03-22T06:12:30.593Z,100002.63
2023-03-22T06:14:56.908Z,99994.47
2023-03-22T06:17:24.157Z,100014.31
2023-03-22T06:19:52.929Z,99997.03
2023-03-22T06:22:19.538Z,99990.81
2023-03-22T06:24:45.878Z,99993.31
2023-03-22T06:27:12.255Z,99985.87
2023-03-22T06:29:38.570Z,99982.88
2023-03-22T06:32:04.919Z,99984.63
2023-03-22T06:34:31.462Z,99978.59
2023-03-22T06:36:57.852Z,99975.38
2023-03-22T06:39:24.182Z,99976.63
2023-03-22T06:41:50.645Z,99976.41
2023-03-22T06:44:17.011Z,99980.38
2023-03-22T06:46:43.350Z,99979.47
2023-03-22T06:49:09.872Z,99981.91
2023-03-22T06:51:36.222Z,99982.25
2023-03-22T06:54:02.538Z,99980.41
2023-03-22T06:56:28.838Z,99978.41
2023-03-22T06:58:57.324Z,99982.34
2023-03-22T07:01:23.679Z,99984.44
2023-03-22T07:03:50.056Z,99986.00
2023-03-22T07:06:16.387Z,99990.09
2023-03-22T07:08:43.107Z,99982.97
2023-03-22T07:11:09.498Z,99988.28
2023-03-22T07:13:35.825Z,99983.47
2023-03-22T07:16:02.220Z,99982.59
2023-03-22T07:18:28.592Z,99972.88
2023-03-22T07:20:54.910Z,99970.09
2023-03-22T07:23:21.439Z,99980.13
2023-03-22T07:25:47.925Z,99985.19
2023-03-22T07:28:14.331Z,99983.66
2023-03-22T07:30:40.911Z,99974.53
2023-03-22T07:33:07.446Z,99979.84
2023-03-22T07:35:33.821Z,99978.69
2023-03-22T07:38:00.985Z,99978.31
2023-03-22T07:40:27.332Z,99977.31
2023-03-22T07:42:55.776Z,99967.84
2023-03-22T07:45:22.294Z,99970.25
2023-03-22T07:47:48.710Z,99965.00
2023-03-22T07:50:15.125Z,99958.66
2023-03-22T07:52:41.640Z,99973.31
2023-03-22T07:55:07.966Z,99961.97
2023-03-22T07:57:34.308Z,99968.81
2023-03-22T08:00:00.810Z,99967.31
2023-03-22T08:02:27.230Z,99966.47
2023-03-22T08:04:56.479Z,99963.59
2023-03-22T08:07:25.129Z,99966.00
2023-03-22T08:09:51.510Z,99958.16
2023-03-22T08:12:17.843Z,99961.22
2023-03-22T08:14:46.447Z,99962.25
2023-03-22T08:17:12.757Z,99959.91
2023-03-22T08:19:39.130Z,99964.00
2023-03-22T08:22:06.901Z,99967.78
2023-03-22T08:24:33.297Z,99960.50
2023-03-22T08:26:59.640Z,99957.44
2023-03-22T08:29:25.969Z,99957.16
2023-03-22T08:31:52.744Z,99962.16
2023-03-22T08:34:19.140Z,99950.19
2023-03-22T08:36:46.333Z,99953.66
2023-03-22T08:39:12.661Z,99948.66
2023-03-22T08:41:38.994Z,99952.97
2023-03-22T08:44:05.446Z,99945.22
2023-03-22T08:46:31.795Z,99944.84
2023-03-22T08:49:00.489Z,99947.34
2023-03-22T08:51:26.809Z,99936.78
2023-03-22T08:53:53.153Z,99951.41
2023-03-22T08:56:20.287Z,99947.00
2023-03-22T08:58:46.865Z,99938.72
2023-03-22T09:01:13.330Z,99942.69
2023-03-22T09:03:39.724Z,99944.66
2023-03-22T09:06:06.794Z,99943.44
2023-03-22T09:08:33.098Z,99941.63
2023-03-22T09:10:59.448Z,99933.28
2023-03-22T09:13:25.955Z,99929.38
2023-03-22T09:15:52.460Z,99930.63
2023-03-22T09:18:18.983Z,99936.03
2023-03-22T09:20:45.888Z,99931.31
2023-03-22T09:23:12.226Z,99925.28
2023-03-22T09:25:38.745Z,99921.16
2023-03-22T09:28:05.198Z,99914.38
2023-03-22T09:30:31.586Z,99915.31
2023-03-22T09:32:57.918Z,99909.25
2023-03-22T09:35:24.335Z,99908.87
2023-03-22T09:37:53.460Z,99903.75
2023-03-22T09:40:19.823Z,99898.50
2023-03-22T09:42:46.250Z,99896.53
2023-03-22T09:45:12.920Z,99897.78
2023-03-22T09:47:44.785Z,99887.53
2023-03-22T09:50:11.782Z,99887.25
2023-03-22T09:52:38.332Z,99888.88
2023-03-22T09:55:04.716Z,99879.59
2023-03-22T09:57:32.566Z,99873.19
2023-03-22T09:59:59.259Z,99874.41
2023-03-22T10:02:25.598Z,99879.91
2023-03-22T10:04:51.945Z,99878.72
2023-03-22T10:07:18.255Z,99868.00
2023-03-22T10:09:44.567Z,99867.34
2023-03-22T10:12:11.021Z,99863.81
2023-03-22T10:14:37.418Z,99856.19
2023-03-22T10:17:05.728Z,99841.78
2023-03-22T10:19:32.052Z,99853.44
2023-03-22T10:21:58.367Z,99857.06
2023-03-22T10:24:24.711Z,99855.72
2023-03-22T10:26:51.032Z,99847.87
2023-03-22T10:29:17.360Z,99856.00
2023-03-22T10:31:43.768Z,99836.91
2023-03-22T10:34:10.113Z,99840.44
2023-03-22T10:36:36.499Z,99840.47
2023-03-22T10:39:04.048Z,99839.59
2023-03-22T10:41:30.446Z,99839.63
2023-03-22T10:43:56.833Z,99838.94
2023-03-22T10:46:23.305Z,99826.50
2023-03-22T10:48:49.673Z,99819.47
2023-03-22T10:51:16.119Z,99835.69
2023-03-22T10:53:42.443Z,99823.63
2023-03-22T10:56:08.776Z,99820.22
2023-03-22T10:58:35.502Z,99817.66
2023-03-22T11:01:02.028Z,99815.63
2023-03-22T11:03:28.397Z,99818.50
2023-03-22T11:05:54.728Z,99816.97
2023-03-22T11:08:21.049Z,99817.41
2023-03-22T11:10:47.428Z,99816.59
2023-03-22T11:13:13.750Z,99814.25
2023-03-22T11:15:40.321Z,99809.47
2023-03-22T11:18:06.889Z,99797.41
2023-03-22T11:20:33.883Z,99805.41
2023-03-22T11:23:00.498Z,99798.13
2023-03-22T11:25:26.883Z,99793.34
2023-03-22T11:27:53.536Z,99778.84
2023-03-22T11:30:23.052Z,99774.41
2023-03-22T11:32:49.485Z,99779.63
2023-03-22T11:35:15.982Z,99761.78
2023-03-22T11:37:42.561Z,99764.84
2023-03-22T11:40:10.995Z,99758.44
2023-03-22T11:42:37.350Z,99756.94
2023-03-22T11:45:03.739Z,99752.41
2023-03-22T11:47:30.075Z,99740.09
2023-03-22T11:49:57.292Z,99730.44
2023-03-22T11:52:23.750Z,99730.44
2023-03-22T11:54:50.180Z,99725.53
2023-03-22T11:57:17.398Z,99727.25
2023-03-22T11:59:43.797Z,99723.84
2023-03-22T12:02:10.365Z,99713.06
2023-03-22T12:04:36.739Z,99715.84
2023-03-22T12:07:03.061Z,99707.66
2023-03-22T12:09:29.407Z,99708.78
2023-03-22T12:11:56.175Z,99702.63
2023-03-22T12:14:22.519Z,99703.91
2023-03-22T12:16:48.942Z,99705.22
2023-03-22T12:19:15.487Z,99699.13
2023-03-22T12:21:41.878Z,99693.25
2023-03-22T12:24:09.523Z,99681.69
2023-03-22T12:26:36.038Z,99687.91
2023-03-22T12:29:02.359Z,99678.72
2023-03-22T12:31:28.728Z,99681.44
2023-03-22T12:33:55.123Z,99677.47
2023-03-22T12:36:21.498Z,99678.16
2023-03-22T12:38:48.486Z,99667.31
2023-03-22T12:41:15.125Z,99684.34
2023-03-22T12:43:41.457Z,99681.72
2023-03-22T12:46:07.817Z,99671.72
2023-03-22T12:48:34.190Z,99678.78
2023-03-22T12:51:00.848Z,99677.44
2023-03-22T12:53:27.198Z,99665.03
2023-03-22T12:55:53.572Z,99665.37
2023-03-22T12:58:19.946Z,99656.69
2023-03-22T13:00:46.319Z,99656.06
2023-03-22T13:03:12.735Z,99659.94
2023-03-22T13:05:39.464Z,99656.56
2023-03-22T13:08:06.603Z,99660.31
2023-03-22T13:10:34.108Z,99653.00
2023-03-22T13:13:00.452Z,99651.16
2023-03-22T13:15:34.805Z,99651.16
2023-03-22T13:18:07.050Z,99653.41
2023-03-22T13:20:34.152Z,99643.34
2023-03-22T13:23:00.802Z,99649.91
2023-03-22T13:25:27.574Z,99639.28
2023-03-22T13:27:54.076Z,99639.94
2023-03-22T13:30:20.417Z,99636.53
2023-03-22T13:32:52.578Z,99624.00
2023-03-22T13:35:21.985Z,99645.63
2023-03-22T13:37:49.427Z,99629.56
2023-03-22T13:40:17.385Z,99630.59
2023-03-22T13:42:43.711Z,99626.72
2023-03-22T13:45:10.052Z,99618.06
2023-03-22T13:47:36.665Z,99625.94
2023-03-22T13:50:04.862Z,99615.06
2023-03-22T13:52:32.608Z,99613.47
2023-03-22T13:54:58.959Z,99607.41
2023-03-22T13:57:25.286Z,99611.47
2023-03-22T13:59:59.946Z,99608.62
2023-03-22T14:02:36.020Z,99611.47
2023-03-22T14:05:02.602Z,99596.22
2023-03-22T14:07:29.005Z,99597.72
2023-03-22T14:09:55.390Z,99599.50
2023-03-22T14:12:21.995Z,99588.50
2023-03-22T14:14:48.327Z,99589.25
2023-03-22T14:17:15.680Z,99587.31
2023-03-22T14:19:42.194Z,99588.84
2023-03-22T14:53:39.685Z,99566.47
2023-03-22T14:56:06.161Z,99575.59
2023-03-22T14:58:32.616Z,99577.13
2023-03-22T15:00:59.059Z,99573.19
2023-03-22T15:03:25.589Z,99574.16
2023-03-22T15:05:53.383Z,99567.09
2023-03-22T15:08:20.030Z,99562.16
2023-03-22T15:10:46.466Z,99562.16
2023-03-22T15:13:12.918Z,99575.47
2023-03-22T15:15:39.575Z,99564.22
2023-03-22T15:18:06.090Z,99561.91
2023-03-22T15:20:32.586Z,99555.06
2023-03-22T15:22:59.533Z,99555.47
2023-03-22T15:25:25.994Z,99552.66
2023-03-22T15:27:52.650Z,99547.56
2023-03-22T15:30:19.108Z,99546.78
2023-03-22T15:32:45.605Z,99553.06
2023-03-22T15:35:12.052Z,99545.03
2023-03-22T15:37:38.478Z,99546.72
2023-03-22T15:40:09.457Z,99543.81
2023-03-22T15:42:39.764Z,99548.78
2023-03-22T15:45:07.528Z,99543.16
2023-03-22T15:47:33.953Z,99549.25
2023-03-22T15:50:00.439Z,99542.81
2023-03-22T15:52:26.853Z,99542.88
2023-03-22T15:54:56.611Z,99541.75
2023-03-22T15:57:23.053Z,99547.41
2023-03-22T15:59:49.502Z,99548.28
2023-03-22T16:02:16.316Z,99545.44
2023-03-22T16:04:42.945Z,99549.53
2023-03-22T16:07:11.506Z,99545.50
2023-03-22T16:09:38.264Z,99552.81
2023-03-22T16:12:04.701Z,99557.69
2023-03-22T16:14:31.379Z,99553.34
2023-03-22T16:16:57.887Z,99556.28
2023-03-22T16:19:24.438Z,99553.03
2023-03-22T16:21:50.964Z,99562.34
2023-03-22T16:24:17.374Z,99572.84
2023-03-22T16:26:43.905Z,99569.69
2023-03-22T16:29:10.385Z,99564.06
2023-03-22T16:31:38.989Z,99574.97
2023-03-22T16:34:09.349Z,99576.59
2023-03-22T16:36:35.771Z,99591.09
2023-03-22T16:39:02.223Z,99583.03
2023-03-22T16:41:28.709Z,99589.87
2023-03-22T16:43:55.170Z,99574.97
2023-03-22T16:46:21.664Z,99585.44
2023-03-22T16:48:48.194Z,99573.78
2023-03-22T16:51:14.621Z,99583.03
2023-03-22T16:53:41.065Z,99588.25
2023-03-22T16:56:07.566Z,99582.22
2023-03-22T16:58:34.035Z,99578.62
2023-03-22T17:01:00.978Z,99578.16
2023-03-22T17:03:27.608Z,99583.84
2023-03-22T17:05:54.020Z,99583.06
2023-03-22T17:08:20.453Z,99592.69
2023-03-22T17:10:46.990Z,99581.37
2023-03-22T17:13:13.474Z,99599.88
2023-03-22T17:15:41.810Z,99595.84
2023-03-22T17:18:11.312Z,99593.81
2023-03-22T17:20:37.873Z,99590.69
2023-03-22T17:23:04.417Z,99591.91
2023-03-22T17:25:30.854Z,99595.09
2023-03-22T17:27:57.318Z,99606.34
2023-03-22T17:30:24.096Z,99599.88
2023-03-22T17:32:59.666Z,99601.44
2023-03-22T17:35:30.614Z,99609.09
2023-03-22T17:37:57.528Z,99609.09
2023-03-22T17:40:49.607Z,99619.94
2023-03-22T17:43:11.882Z,99619.09
2023-03-22T17:46:11.215Z,99626.16
2023-03-22T17:48:26.955Z,99628.22
2023-03-22T17:50:53.465Z,99629.81
2023-03-22T17:53:43.363Z,99646.00
2023-03-22T17:56:42.257Z,99647.56
2023-03-22T17:58:54.162Z,99658.37
2023-03-22T18:01:23.798Z,99657.09
2023-03-22T18:03:50.424Z,99665.13
2023-03-22T18:06:16.944Z,99667.78
2023-03-22T18:08:43.450Z,99666.88
2023-03-22T18:11:09.881Z,99668.88
2023-03-22T18:13:38.416Z,99665.66
2023-03-22T18:16:05.418Z,99666.88
2023-03-22T18:18:33.973Z,99671.63
2023-03-22T18:21:00.676Z,99667.88
2023-03-22T18:23:27.338Z,99678.75
2023-03-22T18:25:54.011Z,99676.75
2023-03-22T18:28:21.235Z,99679.47
2023-03-22T18:30:48.353Z,99676.44
2023-03-22T18:33:14.781Z,99683.44
2023-03-22T18:35:41.349Z,99680.44
2023-03-22T18:38:08.412Z,99684.31
2023-03-22T18:41:20.046Z,99690.44
2023-03-22T18:43:21.345Z,99694.31
2023-03-22T18:45:58.546Z,99692.28
2023-03-22T18:48:29.355Z,99695.16
2023-03-22T18:51:02.176Z,99692.34
2023-03-22T18:53:35.633Z,99686.28
2023-03-22T18:56:06.891Z,99695.94
2023-03-22T18:58:35.837Z,99703.41
2023-03-22T19:01:06.106Z,99695.72
2023-03-22T19:03:35.735Z,99697.06
2023-03-22T19:06:02.417Z,99693.44
2023-03-22T19:08:30.140Z,99697.72
2023-03-22T19:10:57.075Z,99698.56
2023-03-22T19:13:23.705Z,99702.25
2023-03-22T19:15:50.717Z,99706.06
2023-03-22T19:18:17.862Z,99697.84
2023-03-22T19:20:57.717Z,99718.72
2023-03-22T19:23:31.334Z,99710.34
2023-03-22T19:25:57.838Z,99700.25
2023-03-22T19:28:27.269Z,99703.44
2023-03-22T19:30:53.858Z,99700.97
2023-03-22T19:33:34.839Z,99712.25
2023-03-22T19:36:06.865Z,99707.03
2023-03-22T19:38:33.391Z,99702.34
2023-03-22T19:43:41.836Z,99704.44
2023-03-22T19:46:08.932Z,99692.31
2023-03-22T19:48:36.155Z,99688.31
2023-03-22T19:51:02.750Z,99701.06
2023-03-22T19:54:06.940Z,99695.13
2023-03-22T19:56:15.716Z,99695.31
2023-03-22T19:58:42.322Z,99695.00
2023-03-22T20:01:09.980Z,99698.31
2023-03-22T20:03:36.408Z,99699.31
2023-03-22T20:06:02.933Z,99701.47
2023-03-22T20:08:29.399Z,99703.00
2023-03-22T20:10:55.833Z,99697.19
2023-03-22T20:13:22.231Z,99699.56
2023-03-22T20:15:48.733Z,99697.19
2023-03-22T20:18:15.173Z,99697.50
2023-03-22T20:20:41.709Z,99698.50
2023-03-22T20:23:08.137Z,99694.31
2023-03-22T20:25:34.551Z,99697.13
2023-03-22T20:28:01.009Z,99693.69
2023-03-22T20:30:27.521Z,99692.75
2023-03-22T20:32:53.960Z,99694.25
2023-03-22T20:35:20.574Z,99698.78
2023-03-22T20:37:48.426Z,99698.91
2023-03-22T20:40:15.789Z,99693.97
2023-03-22T20:42:42.441Z,99696.72
2023-03-22T20:45:09.022Z,99688.06
2023-03-22T20:47:35.524Z,99684.59
2023-03-22T20:50:02.107Z,99686.22
2023-03-22T20:52:28.562Z,99680.50
2023-03-22T20:54:57.915Z,99679.75
2023-03-22T20:57:27.425Z,99689.63
2023-03-22T20:59:53.854Z,99688.00
2023-03-22T21:02:20.276Z,99676.88
2023-03-22T21:04:46.855Z,99683.34
2023-03-22T21:07:13.287Z,99675.38
2023-03-22T21:09:39.713Z,99679.88
2023-03-22T21:12:06.331Z,99682.59
2023-03-22T21:14:33.696Z,99682.59
2023-03-22T21:17:00.119Z,99681.25
2023-03-22T21:19:27.078Z,99678.75
2023-03-22T21:21:54.183Z,99676.97
2023-03-22T21:24:23.330Z,99675.78
2023-03-22T21:26:49.804Z,99672.16
2023-03-22T21:29:16.372Z,99675.53
2023-03-22T21:31:42.882Z,99675.22
2023-03-22T21:34:09.355Z,99674.97
2023-03-22T21:36:35.864Z,99674.16
2023-03-22T21:39:02.967Z,99682.56
2023-03-22T21:41:29.641Z,99682.00
2023-03-22T21:43:58.537Z,99682.66
2023-03-22T21:46:25.015Z,99684.84
2023-03-22T21:48:54.214Z,99678.69
2023-03-22T21:51:25.144Z,99694.69
2023-03-22T21:53:52.379Z,99695.25
2023-03-22T21:56:18.860Z,99688.28
2023-03-22T21:58:45.405Z,99689.88
2023-03-22T22:01:11.919Z,99669.78
2023-03-22T22:03:38.496Z,99671.47
2023-03-22T22:06:04.917Z,99662.19
2023-03-22T22:08:31.438Z,99652.56
2023-03-22T22:10:58.109Z,99653.03
2023-03-22T22:13:24.637Z,99650.50
2023-03-22T22:15:51.139Z,99648.72
2023-03-22T22:18:17.922Z,99645.28
2023-03-22T22:20:44.343Z,99634.09
2023-03-22T22:23:10.780Z,99626.41
2023-03-22T22:25:41.752Z,99629.34
2023-03-22T22:28:08.436Z,99628.53
2023-03-22T22:30:35.017Z,99617.91
2023-03-22T22:33:01.499Z,99612.97
2023-03-22T22:35:28.006Z,99612.06
2023-03-22T22:37:54.572Z,99612.25
2023-03-22T22:40:21.194Z,99613.47
2023-03-22T22:42:47.634Z,99615.59
2023-03-22T22:45:14.096Z,99614.91
2023-03-22T22:47:40.604Z,99612.47
2023-03-22T22:50:07.225Z,99609.63
2023-03-22T22:52:33.654Z,99604.81
2023-03-22T22:55:00.122Z,99610.88
2023-03-22T22:57:26.648Z,99612.47
2023-03-22T22:59:53.081Z,99600.25
2023-03-22T23:02:19.493Z,99605.22
2023-03-22T23:04:45.998Z,99604.72
2023-03-22T23:07:12.876Z,99612.87
2023-03-22T23:09:47.476Z,99614.88
2023-03-22T23:12:13.889Z,99603.34
2023-03-22T23:14:42.064Z,99610.97
2023-03-22T23:17:08.668Z,99605.37
2023-03-22T23:19:38.389Z,99603.47
2023-03-22T23:22:04.802Z,99606.16
2023-03-22T23:24:31.278Z,99606.81
2023-03-22T23:26:57.727Z,99597.63
2023-03-22T23:29:24.342Z,99598.34
2023-03-22T23:31:51.441Z,99604.41
2023-03-22T23:34:17.868Z,99596.75
2023-03-22T23:36:44.851Z,99596.56
2023-03-22T23:39:11.822Z,99588.28
2023-03-22T23:41:38.409Z,99584.84
2023-03-22T23:44:04.822Z,99587.22
2023-03-22T23:46:31.228Z,99581.53
2023-03-22T23:49:00.714Z,99578.28
2023-03-22T23:51:27.612Z,99579.19
2023-03-22T23:53:54.120Z,99572.38
2023-03-22T23:56:21.132Z,99565.78
2023-03-22T23:58:47.571Z,99574.06
